This is the latest recevied weather packets stored in our database for station/object K4SPB-4. If no packets are shown the sender has not sent any weather packets the latest 10 day(s).
| Time | Temp. | Humidity | Pressure | Rain* | Wind** | Luminosity | Snow |
|---|---|---|---|---|---|---|---|
| 1777834829 | 21.11° C | 34% | 1018.7 hPa | 0 mm | - | - | - |
| 1777833643 | 20.56° C | 34% | 1018.9 hPa | 0 mm | - | - | - |
| 1777827018 | 19.44° C | 39% | 1020.7 hPa | 0 mm | - | - | - |
| 1777819833 | 15.56° C | 47% | 1021.4 hPa | 0 mm | - | - | - |
| 1777815920 | 12.78° C | 60% | 1021.4 hPa | 0 mm | - | - | - |
| 1777815319 | 12.22° C | 64% | 1021.4 hPa | 0 mm | - | - | - |
| 1777812625 | 10° C | 77% | 1021.4 hPa | 0 mm | - | - | - |
| 1777808431 | 7.22° C | 88% | 1020.6 hPa | 0 mm | - | - | - |
| 1777803652 | 7.78° C | 86% | 1020.1 hPa | 0 mm | - | - | - |
| 1777803030 | 7.78° C | 85% | 1020 hPa | 0 mm | - | - | - |
| 1777800019 | 8.89° C | 81% | 1019.8 hPa | 0 mm | - | - | - |
| 1777797048 | 8.89° C | 80% | 1020 hPa | 0 mm | - | - | - |
| 1777791026 | 10.56° C | 73% | 1019.8 hPa | 0 mm | - | - | - |
| 1777788035 | 11.11° C | 69% | 1019.8 hPa | 0 mm | - | - | - |
| 1777784420 | 12.22° C | 65% | 1019.3 hPa | 0 mm | - | - | - |
| 1777783818 | 12.22° C | 64% | 1019.3 hPa | 0 mm | - | - | - |
| 1777782032 | 12.78° C | 62% | 1019 hPa | 0 mm | - | - | - |
| 1777780827 | 13.33° C | 60% | 1018.9 hPa | 0 mm | - | - | - |
| 1777776632 | 15° C | 45% | 1018.4 hPa | 0 mm | - | - | - |
| 1777771834 | 16.67° C | 40% | 1017.2 hPa | 0 mm | - | - | - |
| 1777771233 | 17.22° C | 39% | 1017.2 hPa | 0 mm | - | - | - |
| 1777770029 | 17.78° C | 36% | 1017 hPa | 0 mm | - | - | - |
| 1777763425 | 20° C | 33% | 1016 hPa | 0 mm | - | - | - |
| 1777753226 | 20.56° C | 34% | 1016.1 hPa | 0 mm | - | - | - |
| 1777751419 | 20° C | 36% | 1016.4 hPa | 0 mm | - | - | - |
* Rain latest hour (hover to see other rain measurements)
** Current wind speed in m/s (hover to see current wind gust speed)